createdAt,value
2023-02-11T00:01:01.943Z,21.40
2023-02-11T00:03:30.240Z,19.00
2023-02-11T00:05:59.743Z,21.60
2023-02-11T00:08:27.954Z,16.40
2023-02-11T00:10:56.587Z,8.40
2023-02-11T00:13:25.838Z,15.20
2023-02-11T00:15:54.156Z,19.80
2023-02-11T00:18:24.060Z,23.80
2023-02-11T00:20:52.155Z,17.80
2023-02-11T00:23:20.309Z,11.20
2023-02-11T00:25:48.677Z,16.40
2023-02-11T00:28:17.081Z,18.80
2023-02-11T00:30:45.306Z,12.00
2023-02-11T00:33:13.526Z,10.00
2023-02-11T00:35:43.077Z,15.80
2023-02-11T00:38:11.192Z,17.00
2023-02-11T00:40:39.327Z,12.80
2023-02-11T00:43:07.449Z,14.20
2023-02-11T00:45:35.891Z,15.60
2023-02-11T00:48:04.305Z,7.80
2023-02-11T00:50:32.575Z,19.60
2023-02-11T00:53:02.115Z,9.40
2023-02-11T00:55:31.087Z,15.00
2023-02-11T00:58:00.229Z,13.60
2023-02-11T01:00:29.403Z,16.00
2023-02-11T01:02:57.552Z,14.20
2023-02-11T01:05:25.847Z,10.80
2023-02-11T01:07:54.106Z,15.00
2023-02-11T01:10:24.683Z,9.80
2023-02-11T01:12:54.799Z,14.20
2023-02-11T01:15:23.093Z,15.80
2023-02-11T01:17:51.201Z,15.40
2023-02-11T01:20:23.418Z,13.40
2023-02-11T01:22:51.587Z,9.40
2023-02-11T01:25:19.900Z,15.00
2023-02-11T01:27:49.558Z,12.40
2023-02-11T01:30:18.184Z,14.40
2023-02-11T01:32:48.728Z,17.20
2023-02-11T01:35:17.066Z,17.20
2023-02-11T01:37:45.275Z,18.80
2023-02-11T01:40:14.450Z,15.00
2023-02-11T01:42:42.670Z,13.60
2023-02-11T01:45:34.745Z,1.80
2023-02-11T01:48:04.284Z,11.60
2023-02-11T01:50:32.749Z,9.40
2023-02-11T01:53:21.180Z,9.80
2023-02-11T01:56:06.613Z,12.20
2023-02-11T01:58:37.350Z,10.20
2023-02-11T02:01:06.031Z,11.20
2023-02-11T02:03:37.606Z,13.80
2023-02-11T02:06:09.546Z,8.60
2023-02-11T02:08:40.206Z,15.60
2023-02-11T02:11:08.856Z,14.20
2023-02-11T02:13:38.949Z,11.80
2023-02-11T02:16:09.905Z,3.80
2023-02-11T02:18:45.991Z,13.60
2023-02-11T02:21:37.989Z,13.00
2023-02-11T02:24:17.294Z,13.80
2023-02-11T02:26:55.481Z,14.20
2023-02-11T02:29:44.586Z,11.60
2023-02-11T02:32:31.627Z,10.00
2023-02-11T02:35:03.721Z,12.40
2023-02-11T02:37:35.157Z,13.40
2023-02-11T02:40:05.973Z,5.20
2023-02-11T02:42:34.516Z,7.00
2023-02-11T02:45:02.659Z,7.40
2023-02-11T02:47:32.630Z,11.60
2023-02-11T02:50:00.890Z,10.00
2023-02-11T02:52:36.131Z,9.40
2023-02-11T02:55:10.174Z,9.20
2023-02-11T02:57:42.293Z,10.00
2023-02-11T03:00:15.783Z,10.00
2023-02-11T03:02:51.559Z,7.00
2023-02-11T03:05:23.090Z,5.60
2023-02-11T03:07:56.514Z,12.00
2023-02-11T03:10:26.862Z,0.00
2023-02-11T03:12:56.521Z,6.40
2023-02-11T03:15:26.570Z,2.20
2023-02-11T03:17:59.626Z,10.40
2023-02-11T03:20:29.600Z,9.60
2023-02-11T03:22:59.502Z,3.80
2023-02-11T03:25:38.281Z,7.00
2023-02-11T03:28:09.428Z,4.00
2023-02-11T03:30:40.481Z,11.00
2023-02-11T03:33:13.063Z,7.40
2023-02-11T03:35:43.427Z,5.20
2023-02-11T03:38:14.445Z,9.00
2023-02-11T03:40:45.755Z,10.60
2023-02-11T03:43:18.456Z,12.60
2023-02-11T03:45:47.834Z,10.00
2023-02-11T03:48:20.339Z,10.40
2023-02-11T03:50:50.020Z,8.40
2023-02-11T03:53:18.909Z,10.60
2023-02-11T03:55:49.196Z,6.60
2023-02-11T03:58:17.564Z,8.40
2023-02-11T04:00:45.771Z,10.80
2023-02-11T04:03:14.376Z,3.00
2023-02-11T04:05:43.978Z,4.00
2023-02-11T04:08:12.176Z,7.80
2023-02-11T04:10:40.343Z,7.00
2023-02-11T04:13:08.486Z,6.00
2023-02-11T04:15:36.771Z,9.60
2023-02-11T04:18:05.243Z,3.80
2023-02-11T04:20:33.378Z,3.20
2023-02-11T04:23:03.035Z,6.40
2023-02-11T04:25:31.183Z,7.40
2023-02-11T04:27:59.372Z,7.40
2023-02-11T04:30:27.544Z,7.20
2023-02-11T04:32:55.737Z,6.60
2023-02-11T04:35:23.864Z,7.00
2023-02-11T04:37:52.154Z,9.40
2023-02-11T04:40:21.929Z,8.20
2023-02-11T04:42:50.071Z,6.60
2023-02-11T04:45:18.252Z,6.40
2023-02-11T04:47:46.463Z,7.00
2023-02-11T04:50:14.623Z,4.00
2023-02-11T04:52:42.805Z,6.40
2023-02-11T04:55:11.002Z,5.60
2023-02-11T04:57:40.582Z,4.00
2023-02-11T05:00:10.180Z,7.00
2023-02-11T05:02:38.586Z,6.00
2023-02-11T05:05:07.203Z,3.00
2023-02-11T05:07:35.461Z,1.00
2023-02-11T05:10:03.680Z,6.40
2023-02-11T05:12:31.925Z,9.60
2023-02-11T05:15:01.475Z,6.00
2023-02-11T05:17:32.141Z,3.60
2023-02-11T05:20:00.284Z,3.00
2023-02-11T05:22:28.656Z,5.60
2023-02-11T05:24:56.866Z,6.60
2023-02-11T05:27:25.132Z,7.00
2023-02-11T05:29:53.282Z,8.40
2023-02-11T05:32:22.803Z,7.80
2023-02-11T05:34:50.984Z,6.00
2023-02-11T05:37:19.370Z,0.80
2023-02-11T05:39:47.587Z,7.00
2023-02-11T05:42:15.695Z,3.20
2023-02-11T05:44:43.916Z,4.00
2023-02-11T05:47:12.166Z,7.20
2023-02-11T05:49:41.731Z,7.00
2023-02-11T05:52:09.885Z,5.60
2023-02-11T05:54:38.046Z,6.00
2023-02-11T05:57:06.175Z,4.00
2023-02-11T05:59:34.354Z,7.20
2023-02-11T06:02:02.499Z,9.00
2023-02-11T06:04:30.726Z,11.20
2023-02-11T06:07:00.399Z,6.60
2023-02-11T06:09:28.856Z,3.00
2023-02-11T06:11:57.008Z,4.00
2023-02-11T06:14:25.224Z,6.00
2023-02-11T06:16:53.406Z,4.00
2023-02-11T06:19:21.544Z,4.00
2023-02-11T06:21:49.726Z,4.00
2023-02-11T06:24:38.274Z,4.00
2023-02-11T06:27:07.418Z,4.60
2023-02-11T06:29:35.841Z,3.00
2023-02-11T06:32:04.140Z,3.80
2023-02-11T06:34:32.397Z,6.60
2023-02-11T06:37:00.607Z,7.60
2023-02-11T06:39:30.189Z,12.20
2023-02-11T06:41:58.320Z,8.60
2023-02-11T06:44:26.731Z,7.80
2023-02-11T06:46:54.961Z,12.00
2023-02-11T06:49:23.084Z,9.60
2023-02-11T06:51:51.516Z,9.00
2023-02-11T06:54:19.999Z,3.80
2023-02-11T06:56:49.526Z,8.50
2023-02-11T06:59:18.135Z,6.75
2023-02-11T07:01:46.354Z,13.00
2023-02-11T07:04:15.627Z,9.25
2023-02-11T07:06:43.817Z,11.75
2023-02-11T07:09:11.912Z,3.00
2023-02-11T07:11:40.679Z,13.20
2023-02-11T07:14:10.349Z,10.40
2023-02-11T07:16:40.023Z,13.20
2023-02-11T07:19:08.375Z,4.00
2023-02-11T07:21:36.588Z,10.40
2023-02-11T07:24:10.897Z,15.20
2023-02-11T07:26:39.989Z,3.60
2023-02-11T07:29:08.340Z,10.40
2023-02-11T07:31:38.077Z,14.60
2023-02-11T07:34:06.293Z,12.50
2023-02-11T07:36:34.822Z,10.00
2023-02-11T07:39:03.192Z,7.00
2023-02-11T07:41:31.426Z,12.80
2023-02-11T07:43:59.730Z,10.60
2023-02-11T07:46:28.892Z,14.20
2023-02-11T07:48:58.521Z,14.20
2023-02-11T07:51:27.989Z,11.60
2023-02-11T07:53:56.656Z,25.00
2023-02-11T07:56:25.166Z,15.00
2023-02-11T07:58:53.328Z,17.00
2023-02-11T08:01:25.446Z,15.60
2023-02-11T08:03:53.996Z,10.00
2023-02-11T08:06:24.579Z,13.00
2023-02-11T08:08:52.766Z,12.80
2023-02-11T08:11:22.013Z,16.00
2023-02-11T08:13:50.352Z,7.40
2023-02-11T08:16:20.920Z,12.00
2023-02-11T08:18:49.530Z,17.00
2023-02-11T08:21:19.370Z,13.40
2023-02-11T08:23:49.918Z,14.60
2023-02-11T08:26:19.128Z,15.80
2023-02-11T08:28:48.062Z,17.20
2023-02-11T08:31:17.540Z,15.20
2023-02-11T08:33:46.261Z,15.40
2023-02-11T08:36:15.780Z,14.60
2023-02-11T08:38:44.393Z,3.60
2023-02-11T08:41:15.162Z,17.20
2023-02-11T08:43:43.802Z,19.40
2023-02-11T08:46:13.432Z,14.50
2023-02-11T08:48:41.769Z,15.20
2023-02-11T08:51:11.078Z,16.40
2023-02-11T08:53:39.415Z,10.20
2023-02-11T08:56:08.048Z,13.00
2023-02-11T08:58:37.882Z,18.00
2023-02-11T09:01:10.357Z,12.80
2023-02-11T09:03:38.594Z,24.00
2023-02-11T09:06:07.182Z,19.40
2023-02-11T09:08:36.181Z,24.40
2023-02-11T09:11:04.583Z,26.80
2023-02-11T09:13:33.159Z,23.20
2023-02-11T09:16:03.568Z,24.00
2023-02-11T09:18:31.761Z,16.00
2023-02-11T09:21:03.489Z,18.80
2023-02-11T09:23:32.209Z,19.80
2023-02-11T09:26:00.330Z,28.00
2023-02-11T09:28:29.191Z,15.80
2023-02-11T09:30:57.781Z,20.40
2023-02-11T09:33:27.392Z,21.40
2023-02-11T09:35:55.535Z,18.20
2023-02-11T09:38:23.896Z,22.40
2023-02-11T09:40:52.454Z,24.00
2023-02-11T09:43:21.708Z,15.60
2023-02-11T09:45:50.882Z,6.75
2023-02-11T09:48:20.097Z,12.50
2023-02-11T09:50:51.974Z,13.00
2023-02-11T09:53:25.031Z,17.20
2023-02-11T09:55:56.031Z,15.00
2023-02-11T09:58:27.141Z,12.00
2023-02-11T10:01:00.324Z,20.00
2023-02-11T10:03:43.760Z,21.20
2023-02-11T10:06:22.775Z,12.40
2023-02-11T10:08:54.494Z,17.00
2023-02-11T10:11:31.875Z,13.80
2023-02-11T10:14:06.756Z,13.20
2023-02-11T10:16:45.751Z,12.80
2023-02-11T10:19:20.863Z,10.40
2023-02-11T10:21:54.945Z,12.00
2023-02-11T10:24:23.507Z,15.80
2023-02-11T10:26:53.262Z,12.40
2023-02-11T10:29:32.616Z,15.60
2023-02-11T10:32:02.122Z,16.40
2023-02-11T10:34:30.522Z,13.60
2023-02-11T10:37:00.543Z,15.80
2023-02-11T10:39:29.470Z,9.80
2023-02-11T10:42:00.670Z,14.40
2023-02-11T10:44:30.420Z,15.60
2023-02-11T10:46:59.179Z,8.40
2023-02-11T10:49:38.479Z,13.00
2023-02-11T10:52:27.678Z,18.20
2023-02-11T10:55:05.420Z,14.60
2023-02-11T10:57:36.605Z,14.60
2023-02-11T11:00:21.719Z,17.40
2023-02-11T11:02:54.532Z,11.60
2023-02-11T11:05:25.252Z,16.80
2023-02-11T11:07:55.074Z,5.20
2023-02-11T11:10:30.109Z,15.20
2023-02-11T11:12:58.278Z,15.80
2023-02-11T11:15:27.335Z,13.80
2023-02-11T11:18:21.421Z,15.60
2023-02-11T11:20:57.100Z,16.40
2023-02-11T11:23:25.516Z,13.00
2023-02-11T11:26:06.351Z,16.80
2023-02-11T11:28:40.266Z,15.00
2023-02-11T11:31:14.523Z,20.20
2023-02-11T11:33:50.666Z,18.00
2023-02-11T11:36:23.201Z,21.80
2023-02-11T11:38:53.927Z,9.80
2023-02-11T11:41:26.565Z,21.20
2023-02-11T11:43:56.544Z,17.60
2023-02-11T11:46:26.891Z,22.50
2023-02-11T11:48:58.312Z,16.00
2023-02-11T11:51:27.617Z,15.50
2023-02-11T11:53:59.435Z,17.00
2023-02-11T11:56:30.897Z,15.50
2023-02-11T11:59:01.683Z,12.50
2023-02-11T12:01:35.215Z,19.50
2023-02-11T12:04:21.695Z,18.00
2023-02-11T12:06:54.790Z,12.60
2023-02-11T12:09:28.173Z,13.00
2023-02-11T12:12:06.188Z,15.00
2023-02-11T12:14:42.680Z,6.80
2023-02-11T12:17:16.182Z,18.20
2023-02-11T12:19:56.702Z,30.80
2023-02-11T12:22:30.161Z,25.80
2023-02-11T12:25:05.162Z,14.20
2023-02-11T12:27:44.271Z,19.40
2023-02-11T12:30:20.479Z,22.80
2023-02-11T12:32:55.058Z,16.20
2023-02-11T12:35:28.195Z,23.20
2023-02-11T12:38:08.597Z,14.20
2023-02-11T12:40:44.311Z,19.00
2023-02-11T12:43:19.485Z,15.80
2023-02-11T12:46:02.720Z,20.80
2023-02-11T12:48:45.117Z,10.00
2023-02-11T12:51:19.923Z,15.80
2023-02-11T12:54:10.535Z,14.60
2023-02-11T12:56:41.751Z,10.00
2023-02-11T12:59:15.937Z,18.20
2023-02-11T13:01:46.055Z,13.80
2023-02-11T13:04:18.479Z,13.00
2023-02-11T13:06:48.956Z,14.80
2023-02-11T13:09:21.330Z,12.20
2023-02-11T13:11:53.088Z,18.40
2023-02-11T13:14:27.270Z,14.80
2023-02-11T13:16:55.870Z,16.00
2023-02-11T13:19:28.027Z,12.40
2023-02-11T13:22:02.081Z,12.80
2023-02-11T13:24:36.277Z,16.00
2023-02-11T13:27:09.593Z,14.40
2023-02-11T13:29:44.251Z,13.00
2023-02-11T13:32:13.549Z,6.40
2023-02-11T13:34:59.126Z,18.00
2023-02-11T13:37:28.499Z,17.20
2023-02-11T13:40:00.674Z,15.60
2023-02-11T13:42:29.879Z,19.20
2023-02-11T13:44:59.764Z,18.40
2023-02-11T13:47:31.236Z,13.00
2023-02-11T13:50:01.262Z,17.20
2023-02-11T13:52:31.685Z,14.20
2023-02-11T13:55:03.875Z,18.40
2023-02-11T13:57:34.246Z,22.00
2023-02-11T14:00:09.880Z,14.20
2023-02-11T14:02:56.287Z,23.00
2023-02-11T14:05:45.757Z,18.80
2023-02-11T14:08:41.695Z,17.80
2023-02-11T14:11:25.375Z,14.60
2023-02-11T14:14:14.450Z,11.00
2023-02-11T14:16:57.467Z,12.60
2023-02-11T14:19:34.297Z,11.00
2023-02-11T14:22:04.037Z,20.60
2023-02-11T14:24:46.810Z,14.20
2023-02-11T14:27:21.652Z,15.80
2023-02-11T14:29:55.398Z,19.00
2023-02-11T14:32:33.967Z,10.00
2023-02-11T14:35:08.732Z,17.40
2023-02-11T14:37:50.440Z,18.60
2023-02-11T14:40:25.022Z,17.60
2023-02-11T14:42:54.257Z,6.80
2023-02-11T14:45:27.745Z,18.40
2023-02-11T14:47:59.561Z,17.60
2023-02-11T14:50:33.280Z,16.00
2023-02-11T14:53:02.654Z,15.80
2023-02-11T14:55:33.372Z,14.40
2023-02-11T14:58:08.884Z,19.20
2023-02-11T15:00:37.085Z,18.00
2023-02-11T15:03:05.348Z,13.80
2023-02-11T15:05:36.074Z,18.40
2023-02-11T15:08:08.479Z,18.40
2023-02-11T15:10:42.923Z,18.40
2023-02-11T15:13:17.740Z,18.40
2023-02-11T15:15:46.849Z,20.00
2023-02-11T15:18:21.470Z,15.40
2023-02-11T15:20:52.406Z,18.20
2023-02-11T15:23:23.704Z,14.80
2023-02-11T15:25:55.826Z,16.00
2023-02-11T15:28:24.979Z,24.40
2023-02-11T15:31:00.743Z,15.80
2023-02-11T15:33:30.925Z,19.20
2023-02-11T15:36:01.367Z,13.20
2023-02-11T15:38:30.893Z,15.80
2023-02-11T15:41:01.116Z,9.20
2023-02-11T15:43:42.382Z,2.60
2023-02-11T15:46:11.897Z,16.80
2023-02-11T15:48:43.897Z,4.80
2023-02-11T15:51:22.342Z,19.20
2023-02-11T15:53:57.096Z,16.00
2023-02-11T15:56:26.993Z,14.60
2023-02-11T15:58:56.766Z,18.80
2023-02-11T16:01:33.166Z,15.60
2023-02-11T16:04:02.323Z,18.00
2023-02-11T16:06:38.518Z,10.80
2023-02-11T16:09:22.384Z,14.40
2023-02-11T16:11:58.279Z,18.00
2023-02-11T16:14:30.780Z,12.40
2023-02-11T16:17:00.095Z,15.40
2023-02-11T16:19:29.549Z,10.00
2023-02-11T16:22:01.307Z,17.60
2023-02-11T16:24:31.962Z,22.80
2023-02-11T16:27:01.036Z,20.20
2023-02-11T16:29:30.325Z,13.40
2023-02-11T16:32:07.659Z,19.20
2023-02-11T16:34:36.038Z,14.80
2023-02-11T16:37:07.308Z,16.00
2023-02-11T16:39:35.605Z,13.20
2023-02-11T16:42:05.805Z,18.00
2023-02-11T16:44:35.951Z,15.60
2023-02-11T16:47:06.228Z,18.60
2023-02-11T16:49:36.990Z,4.40
2023-02-11T16:52:09.191Z,18.40
2023-02-11T16:54:38.127Z,13.40
2023-02-11T16:57:10.814Z,13.00
2023-02-11T16:59:39.230Z,18.00
2023-02-11T17:02:14.264Z,19.80
2023-02-11T17:04:42.530Z,16.00
2023-02-11T17:07:12.423Z,16.60
2023-02-11T17:09:40.836Z,13.40
2023-02-11T17:12:09.062Z,17.20
2023-02-11T17:14:37.270Z,6.00
2023-02-11T17:17:05.506Z,17.80
2023-02-11T17:19:33.700Z,16.40
2023-02-11T17:22:01.901Z,18.20
2023-02-11T17:24:31.564Z,16.80
2023-02-11T17:26:59.987Z,9.00
2023-02-11T17:29:28.409Z,9.60
2023-02-11T17:31:59.662Z,13.00
2023-02-11T17:34:29.362Z,14.60
2023-02-11T17:36:58.104Z,16.40
2023-02-11T17:39:26.319Z,18.20
2023-02-11T17:41:55.967Z,18.60
2023-02-11T17:44:24.141Z,17.40
2023-02-11T17:46:52.416Z,15.80
2023-02-11T17:49:20.630Z,18.20
2023-02-11T17:51:49.033Z,19.40
2023-02-11T17:54:18.406Z,12.40
2023-02-11T17:56:49.303Z,16.00
2023-02-11T17:59:19.893Z,18.60
2023-02-11T18:01:49.550Z,16.80
2023-02-11T18:04:18.521Z,16.20
2023-02-11T18:06:47.499Z,16.00
2023-02-11T18:09:15.678Z,18.00
2023-02-11T18:11:43.936Z,11.00
2023-02-11T18:14:12.246Z,24.00
2023-02-11T18:16:47.669Z,15.20
2023-02-11T18:19:15.866Z,17.20
2023-02-11T18:21:44.112Z,22.00
2023-02-11T18:24:12.373Z,9.80
2023-02-11T18:26:41.829Z,18.40
2023-02-11T18:29:10.029Z,19.00
2023-02-11T18:31:38.306Z,15.80
2023-02-11T18:34:10.758Z,18.00
2023-02-11T18:36:39.017Z,17.20
2023-02-11T18:39:07.592Z,12.60
2023-02-11T18:41:35.860Z,20.60
2023-02-11T18:44:05.147Z,18.40
2023-02-11T18:46:33.350Z,15.00
2023-02-11T18:49:01.564Z,16.00
2023-02-11T18:51:32.610Z,16.20
2023-02-11T18:54:01.432Z,21.40
2023-02-11T18:56:29.892Z,12.60
2023-02-11T18:59:01.351Z,23.00
2023-02-11T19:01:30.376Z,15.60
2023-02-11T19:03:59.425Z,20.20
2023-02-11T19:06:28.847Z,18.00
2023-02-11T19:08:59.948Z,17.80
2023-02-11T19:11:42.666Z,16.60
2023-02-11T19:14:11.419Z,16.00
2023-02-11T19:16:39.721Z,18.40
2023-02-11T19:19:08.500Z,18.00
2023-02-11T19:21:37.074Z,20.60
2023-02-11T19:24:08.924Z,11.20
2023-02-11T19:26:37.429Z,18.80
2023-02-11T19:29:06.267Z,13.80
2023-02-11T19:31:34.665Z,19.00
2023-02-11T19:34:03.655Z,15.60
2023-02-11T19:36:32.301Z,16.00
2023-02-11T19:39:00.653Z,21.60
2023-02-11T19:41:30.927Z,20.40
2023-02-11T19:43:59.305Z,25.80
2023-02-11T19:46:28.460Z,21.40
2023-02-11T19:48:56.708Z,16.60
2023-02-11T19:51:24.943Z,7.40
2023-02-11T19:53:54.113Z,21.80
2023-02-11T19:56:22.572Z,21.60
2023-02-11T19:58:52.160Z,13.80
2023-02-11T20:01:21.784Z,14.60
2023-02-11T20:03:50.638Z,22.00
2023-02-11T20:06:19.953Z,13.40
2023-02-11T20:08:48.154Z,20.00
2023-02-11T20:11:17.943Z,17.60
2023-02-11T20:13:46.335Z,22.00
2023-02-11T20:16:17.845Z,18.20
2023-02-11T20:18:46.477Z,16.20
2023-02-11T20:21:15.461Z,20.80
2023-02-11T20:23:46.178Z,25.80
2023-02-11T20:26:15.201Z,14.20
2023-02-11T20:28:43.408Z,21.40
2023-02-11T20:31:13.007Z,8.20
2023-02-11T20:33:43.084Z,17.80
2023-02-11T20:36:12.667Z,18.00
2023-02-11T20:38:41.001Z,20.20
2023-02-11T20:41:13.940Z,21.40
2023-02-11T20:43:42.368Z,32.40
2023-02-11T20:46:10.589Z,30.60
2023-02-11T20:48:38.764Z,22.80
2023-02-11T20:51:09.805Z,23.00
2023-02-11T20:53:38.364Z,25.40
2023-02-11T20:56:07.600Z,24.80
2023-02-11T20:58:36.123Z,21.20
2023-02-11T21:01:08.282Z,20.60
2023-02-11T21:03:36.544Z,27.60
2023-02-11T21:06:04.911Z,24.40
2023-02-11T21:08:34.519Z,30.40
2023-02-11T21:11:03.069Z,30.00
2023-02-11T21:13:31.220Z,23.60
2023-02-11T21:15:59.437Z,29.00
2023-02-11T21:18:27.688Z,22.60
2023-02-11T21:20:56.355Z,24.80
2023-02-11T21:23:24.982Z,19.60
2023-02-11T21:25:55.899Z,21.40
2023-02-11T21:28:26.532Z,24.00
2023-02-11T21:30:55.243Z,23.20
2023-02-11T21:33:23.524Z,16.20
2023-02-11T21:35:51.854Z,20.00
2023-02-11T21:38:19.998Z,21.00
2023-02-11T21:40:48.177Z,17.50
2023-02-11T21:43:17.811Z,21.00
2023-02-11T21:45:46.257Z,21.75
2023-02-11T21:48:14.786Z,21.60
2023-02-11T21:50:43.722Z,19.80
2023-02-11T21:53:11.994Z,16.50
2023-02-11T21:55:40.954Z,23.50
2023-02-11T21:58:09.500Z,21.25
2023-02-11T22:00:39.393Z,19.00
2023-02-11T22:03:07.570Z,19.00
2023-02-11T22:05:35.786Z,21.80
2023-02-11T22:08:03.983Z,13.20
2023-02-11T22:10:32.140Z,19.00
2023-02-11T22:13:00.370Z,20.20
2023-02-11T22:15:28.693Z,21.20
2023-02-11T22:17:58.477Z,19.40
2023-02-11T22:20:26.603Z,21.60
2023-02-11T22:22:54.981Z,23.60
2023-02-11T22:25:23.077Z,17.20
2023-02-11T22:27:51.181Z,20.40
2023-02-11T22:30:19.397Z,16.60
2023-02-11T22:32:47.611Z,15.40
2023-02-11T22:35:17.351Z,9.60
2023-02-11T22:37:45.882Z,22.80
2023-02-11T22:40:14.649Z,27.40
2023-02-11T22:42:42.800Z,25.00
2023-02-11T22:45:11.037Z,23.00
2023-02-11T22:47:39.185Z,20.80
2023-02-11T22:50:08.100Z,25.80
2023-02-11T22:52:37.873Z,22.60
2023-02-11T22:55:07.228Z,24.60
2023-02-11T22:57:35.428Z,16.00
2023-02-11T23:00:03.773Z,18.60
2023-02-11T23:02:34.065Z,24.60
2023-02-11T23:05:02.266Z,17.00
2023-02-11T23:07:31.510Z,21.40
2023-02-11T23:10:01.078Z,18.60
2023-02-11T23:12:29.560Z,20.25
2023-02-11T23:14:57.670Z,20.40
2023-02-11T23:17:26.340Z,19.20
2023-02-11T23:19:54.486Z,19.00
2023-02-11T23:22:22.629Z,26.40
2023-02-11T23:24:50.854Z,23.80
2023-02-11T23:27:20.634Z,29.40
2023-02-11T23:29:48.761Z,33.40
2023-02-11T23:32:17.284Z,26.60
2023-02-11T23:34:45.543Z,28.40
2023-02-11T23:37:13.793Z,24.80
2023-02-11T23:39:42.073Z,26.00
2023-02-11T23:42:12.148Z,19.60
2023-02-11T23:44:41.677Z,22.00
2023-02-11T23:47:09.796Z,21.00
2023-02-11T23:49:37.950Z,23.20
2023-02-11T23:52:06.050Z,24.60
2023-02-11T23:54:34.211Z,27.20
2023-02-11T23:57:02.351Z,31.20
2023-02-11T23:59:30.557Z,31.00
